Flight Track Log - Related Links

Times and Time Zones

All times are in EDT time to prevent confusion due to time zone crossing. See the SWA1017 flight status page for this flight to view local times or setup timezone preferences in your user account.

Time Position Orientation Groundspeed Altitude Reporting Facility
EDT Latitude Longitude Course Direction KTS MPH feet Rate Location/Type
Fri 04:54:11 PM 30.1378 -97.5497 41° Northeast 246 283 6,000  Level Houston Center
Fri 04:55:13 PM 30.1911 -97.4806 48° Northeast 305 351 7,000 823 Climbing Houston Center
Fri 04:56:15 PM 30.2728 -97.4478 19° North 307 353 7,700 2,323 Climbing Houston Center
Fri 04:57:17 PM 30.3475 -97.4092 24° Northeast 294 338 11,800 2,952 Climbing Houston Center
Fri 04:58:00 PM 30.5752 -97.2748 41° Northeast  Level FlightAware Approximate
Fri 04:58:19 PM 30.4353 -97.3650 23° Northeast 339 390 13,800  Level Houston Center
Fri 04:59:00 PM 30.6339 -97.1994 41° Northeast  Level FlightAware Approximate
Fri 04:59:21 PM 30.5333 -97.3156 23° Northeast 377 434 16,800  Level Houston Center
Fri 05:00:23 PM 30.6336 -97.2244 38° Northeast 391 450 21,100 2,496 Climbing Houston Center
Fri 05:01:26 PM 30.7106 -97.1333 46° Northeast 393 452 22,000 432 Climbing Houston Center
Fri 05:02:28 PM 30.7894 -97.0378 46° Northeast 407 468 22,000  Level Houston Center
Fri 05:03:30 PM 30.8675 -96.9428 46° Northeast 408 470 22,000  Level Houston Center
Fri 05:04:32 PM 30.9503 -96.8450 45° Northeast 421 484 22,000  Level Houston Center
Fri 05:05:34 PM 31.0442 -96.7317 46° Northeast 416 479 22,000  Level Houston Center
Fri 05:06:36 PM 31.1267 -96.6361 45° Northeast 417 480 22,000  Level Houston Center
Fri 05:07:38 PM 31.2072 -96.5364 47° Northeast 417 480 22,000  Level Houston Center
Fri 05:08:40 PM 31.2886 -96.4372 46° Northeast 419 482 22,000  Level Houston Center
Fri 05:09:42 PM 31.3697 -96.3392 46° Northeast 417 480 22,000  Level Houston Center
Fri 05:10:44 PM 31.4764 -96.3033 16° North 404 465 22,000  Level Houston Center
Fri 05:11:47 PM 31.5878 -96.3125 356° North 397 457 22,000  Level Houston Center
Fri 05:12:54 PM 31.7264 -96.3242 356° North 389 448 22,000 -756 Level Fort Worth Center
Fri 05:13:54 PM 31.8411 -96.3275 359° North 396 456 20,400 -1,750 Descending Fort Worth Center
Fri 05:14:54 PM 31.9500 -96.3361 356° North 401 461 18,500 -2,000 Descending Fort Worth Center
Fri 05:15:54 PM 32.0564 -96.3447 356° North 391 450 16,400 -2,400 Descending Fort Worth Center
Fri 05:16:54 PM 32.1631 -96.3533 356° North 384 442 13,700 -2,250 Descending Fort Worth Center
Fri 05:17:54 PM 32.2592 -96.3594 357° North 384 442 11,900 -1,900 Descending Fort Worth Center
Fri 05:18:54 PM 32.3697 -96.3681 356° North 374 430 9,900 -1,500 Descending Fort Worth Center
Fri 05:19:54 PM 32.4492 -96.3769 355° North 334 384 8,900 -1,400 Descending Fort Worth Center
Fri 05:20:54 PM 32.5269 -96.4253 332° Northwest 289 333 7,100 -1,700 Descending Fort Worth Center
Fri 05:21:54 PM 32.5919 -96.4667 332° Northwest 289 333 5,500 -1,050 Descending Fort Worth Center
Fri 05:22:54 PM 32.6714 -96.5125 334° Northwest 289 333 5,000 -250 Descending Fort Worth Center
Fri 05:23:54 PM 32.7261 -96.5542 327° Northwest 271 312 5,000  Level Fort Worth Center
Fri 05:24:54 PM 32.7850 -96.6053 324° Northwest 247 284 5,000  Level Fort Worth Center
Fri 05:25:54 PM 32.8353 -96.6494 324° Northwest 242 278 5,000 -389 Level Fort Worth Center
Fri 05:26:42 PM 32.8833 -96.7000 319° Northwest 240 276 4,300 -556 Descending Dallas / Fort Worth TRACON
Fri 05:27:42 PM 32.9167 -96.7500 308° West 235 270 4,000 -470 Descending Dallas / Fort Worth TRACON
Fri 05:28:37 PM 32.9667 -96.8000 320° Northwest 206 237 3,400 -496 Descending Dallas / Fort Worth TRACON
Fri 05:29:43 PM 32.9833 -96.8667 287° West 181 208 3,000 -600 Descending Dallas / Fort Worth TRACON
Fri 05:30:37 PM 32.9667 -96.9000 239° Southwest 164 189 2,200 -522 Descending Dallas / Fort Worth TRACON
Fri 05:31:38 PM 32.9333 -96.9333 220° Southwest 155 178 2,000 -298 Descending Dallas / Fort Worth TRACON
Fri 05:32:38 PM 32.9000 -96.9000 140° Southeast 142 163 1,600 -500 Descending Dallas / Fort Worth TRACON
Fri 05:33:38 PM 32.8667 -96.8833 157° South 126 145 1,000 -600 Descending Dallas / Fort Worth TRACON
Fri 05:35:00 PM 32.8471 -96.8518 154° Southeast  Level Estimated
Fri 05:42:00 PM 32.8471 -96.8518 154° Southeast  Level Estimated

Login

Don't have an account? Register now (free) for customized features, flight alerts, and more!